sensor_id;sensor_type;location;lat;lon;timestamp;pressure;altitude;pressure_sealevel;temperature;humidity
60099;BME280;62818;49.394;8.686;2022-11-20T00:00:27;99928.88;;;4.65;100.00
60099;BME280;62818;49.394;8.686;2022-11-20T00:01:30;99926.16;;;4.57;100.00
60099;BME280;62818;49.394;8.686;2022-11-20T00:02:30;99922.81;;;4.82;100.00
60099;BME280;62818;49.394;8.686;2022-11-20T00:03:38;99934.59;;;4.96;100.00
60099;BME280;62818;49.394;8.686;2022-11-20T00:04:39;99925.53;;;4.90;100.00
60099;BME280;62818;49.394;8.686;2022-11-20T00:05:44;99928.13;;;5.08;100.00
60099;BME280;62818;49.394;8.686;2022-11-20T00:06:47;99927.31;;;5.07;100.00
60099;BME280;62818;49.394;8.686;2022-11-20T00:07:48;99932.78;;;4.79;100.00
60099;BME280;62818;49.394;8.686;2022-11-20T00:08:49;99922.72;;;4.92;100.00
60099;BME280;62818;49.394;8.686;2022-11-20T00:09:52;99930.09;;;4.71;100.00
60099;BME280;62818;49.394;8.686;2022-11-20T00:10:53;99927.09;;;5.01;100.00
60099;BME280;62818;49.394;8.686;2022-11-20T00:11:56;99922.44;;;4.60;100.00
60099;BME280;62818;49.394;8.686;2022-11-20T00:12:59;99922.03;;;4.55;100.00
60099;BME280;62818;49.394;8.686;2022-11-20T00:14:02;99927.97;;;4.57;100.00
60099;BME280;62818;49.394;8.686;2022-11-20T00:15:04;99927.97;;;4.57;100.00
60099;BME280;62818;49.394;8.686;2022-11-20T00:16:09;99928.56;;;4.50;100.00
60099;BME280;62818;49.394;8.686;2022-11-20T00:17:13;99928.50;;;4.42;100.00
60099;BME280;62818;49.394;8.686;2022-11-20T00:18:16;99931.31;;;4.31;100.00
60099;BME280;62818;49.394;8.686;2022-11-20T00:19:19;99923.13;;;4.34;100.00
60099;BME280;62818;49.394;8.686;2022-11-20T00:20:25;99931.56;;;4.56;100.00
60099;BME280;62818;49.394;8.686;2022-11-20T00:21:28;99928.50;;;4.60;100.00
60099;BME280;62818;49.394;8.686;2022-11-20T00:22:32;99930.38;;;4.68;100.00
60099;BME280;62818;49.394;8.686;2022-11-20T00:23:37;99939.22;;;4.49;100.00
60099;BME280;62818;49.394;8.686;2022-11-20T00:24:41;99933.81;;;4.50;100.00
60099;BME280;62818;49.394;8.686;2022-11-20T00:25:44;99939.13;;;4.59;100.00
60099;BME280;62818;49.394;8.686;2022-11-20T00:26:47;99934.94;;;4.66;100.00
60099;BME280;62818;49.394;8.686;2022-11-20T00:27:48;99938.19;;;4.60;100.00
60099;BME280;62818;49.394;8.686;2022-11-20T00:28:53;99940.59;;;4.71;100.00
60099;BME280;62818;49.394;8.686;2022-11-20T00:29:56;99945.22;;;4.32;100.00
60099;BME280;62818;49.394;8.686;2022-11-20T00:31:09;99939.75;;;4.25;100.00
60099;BME280;62818;49.394;8.686;2022-11-20T00:32:14;99943.16;;;4.35;100.00
60099;BME280;62818;49.394;8.686;2022-11-20T00:33:14;99946.66;;;4.26;100.00
60099;BME280;62818;49.394;8.686;2022-11-20T00:34:15;99935.56;;;4.32;100.00
60099;BME280;62818;49.394;8.686;2022-11-20T00:35:20;99943.31;;;4.34;100.00
60099;BME280;62818;49.394;8.686;2022-11-20T00:36:24;99936.56;;;4.31;100.00
60099;BME280;62818;49.394;8.686;2022-11-20T00:37:26;99936.63;;;4.39;100.00
60099;BME280;62818;49.394;8.686;2022-11-20T00:38:27;99942.72;;;4.40;100.00
60099;BME280;62818;49.394;8.686;2022-11-20T00:39:27;99946.06;;;4.32;100.00
60099;BME280;62818;49.394;8.686;2022-11-20T00:40:28;99939.47;;;4.28;100.00
60099;BME280;62818;49.394;8.686;2022-11-20T00:41:29;99938.78;;;4.54;100.00
60099;BME280;62818;49.394;8.686;2022-11-20T00:42:32;99946.50;;;4.55;100.00
60099;BME280;62818;49.394;8.686;2022-11-20T00:43:36;99941.88;;;4.39;100.00
60099;BME280;62818;49.394;8.686;2022-11-20T00:44:37;99941.50;;;4.34;100.00
60099;BME280;62818;49.394;8.686;2022-11-20T00:45:40;99947.72;;;4.33;100.00
60099;BME280;62818;49.394;8.686;2022-11-20T00:46:41;99941.13;;;4.29;100.00
60099;BME280;62818;49.394;8.686;2022-11-20T00:47:46;99944.78;;;4.36;100.00
60099;BME280;62818;49.394;8.686;2022-11-20T00:48:46;99943.88;;;4.28;100.00
60099;BME280;62818;49.394;8.686;2022-11-20T00:49:49;99936.91;;;4.36;100.00
60099;BME280;62818;49.394;8.686;2022-11-20T00:50:50;99936.44;;;4.50;100.00
60099;BME280;62818;49.394;8.686;2022-11-20T00:51:50;99939.25;;;4.39;100.00
60099;BME280;62818;49.394;8.686;2022-11-20T00:52:53;99939.19;;;4.31;100.00
60099;BME280;62818;49.394;8.686;2022-11-20T00:53:59;99937.75;;;4.37;100.00
60099;BME280;62818;49.394;8.686;2022-11-20T00:55:02;99933.63;;;4.34;100.00
60099;BME280;62818;49.394;8.686;2022-11-20T00:56:05;99935.28;;;4.35;100.00
60099;BME280;62818;49.394;8.686;2022-11-20T00:57:07;99932.53;;;4.55;100.00
60099;BME280;62818;49.394;8.686;2022-11-20T00:58:12;99930.25;;;4.87;100.00
60099;BME280;62818;49.394;8.686;2022-11-20T00:59:15;99938.81;;;4.89;100.00
60099;BME280;62818;49.394;8.686;2022-11-20T01:00:20;99931.88;;;4.88;100.00
60099;BME280;62818;49.394;8.686;2022-11-20T01:01:25;99936.25;;;4.97;100.00
60099;BME280;62818;49.394;8.686;2022-11-20T01:02:29;99934.69;;;4.86;100.00
60099;BME280;62818;49.394;8.686;2022-11-20T01:03:34;99931.22;;;4.86;100.00
60099;BME280;62818;49.394;8.686;2022-11-20T01:04:36;99940.97;;;4.76;100.00
60099;BME280;62818;49.394;8.686;2022-11-20T01:05:39;99937.06;;;4.80;100.00
60099;BME280;62818;49.394;8.686;2022-11-20T01:06:42;99936.84;;;4.91;100.00
60099;BME280;62818;49.394;8.686;2022-11-20T01:07:43;99934.00;;;4.84;100.00
60099;BME280;62818;49.394;8.686;2022-11-20T01:08:44;99934.13;;;4.65;100.00
60099;BME280;62818;49.394;8.686;2022-11-20T01:09:45;99936.28;;;4.52;100.00
60099;BME280;62818;49.394;8.686;2022-11-20T01:10:48;99931.88;;;4.70;100.00
60099;BME280;62818;49.394;8.686;2022-11-20T01:11:53;99928.22;;;4.81;100.00
60099;BME280;62818;49.394;8.686;2022-11-20T01:13:01;99931.16;;;4.78;100.00
60099;BME280;62818;49.394;8.686;2022-11-20T01:14:22;99931.28;;;4.94;100.00
60099;BME280;62818;49.394;8.686;2022-11-20T01:15:25;99924.00;;;4.70;100.00
60099;BME280;62818;49.394;8.686;2022-11-20T01:16:28;99934.34;;;4.72;100.00
60099;BME280;62818;49.394;8.686;2022-11-20T01:17:35;99924.69;;;4.90;100.00
60099;BME280;62818;49.394;8.686;2022-11-20T01:18:36;99926.94;;;4.85;100.00
60099;BME280;62818;49.394;8.686;2022-11-20T01:19:40;99931.94;;;4.61;100.00
60099;BME280;62818;49.394;8.686;2022-11-20T01:20:41;99931.25;;;4.59;100.00
60099;BME280;62818;49.394;8.686;2022-11-20T01:21:49;99927.69;;;4.60;100.00
60099;BME280;62818;49.394;8.686;2022-11-20T01:22:51;99926.34;;;4.91;100.00
60099;BME280;62818;49.394;8.686;2022-11-20T01:23:52;99934.00;;;4.84;100.00
60099;BME280;62818;49.394;8.686;2022-11-20T01:24:53;99940.00;;;4.77;100.00
60099;BME280;62818;49.394;8.686;2022-11-20T01:25:56;99935.19;;;4.90;100.00
60099;BME280;62818;49.394;8.686;2022-11-20T01:26:56;99930.09;;;4.71;100.00
60099;BME280;62818;49.394;8.686;2022-11-20T01:28:03;99936.91;;;4.81;100.00
60099;BME280;62818;49.394;8.686;2022-11-20T01:29:08;99941.16;;;4.47;100.00
60099;BME280;62818;49.394;8.686;2022-11-20T01:30:16;99935.34;;;4.71;100.00
60099;BME280;62818;49.394;8.686;2022-11-20T01:31:19;99935.03;;;4.74;100.00
60099;BME280;62818;49.394;8.686;2022-11-20T01:32:24;99933.22;;;4.74;100.00
60099;BME280;62818;49.394;8.686;2022-11-20T01:33:27;99934.00;;;4.67;100.00
60099;BME280;62818;49.394;8.686;2022-11-20T01:34:28;99933.78;;;4.95;100.00
60099;BME280;62818;49.394;8.686;2022-11-20T01:35:31;99933.91;;;4.94;100.00
60099;BME280;62818;49.394;8.686;2022-11-20T01:36:33;99933.91;;;4.76;100.00
60099;BME280;62818;49.394;8.686;2022-11-20T01:37:38;99935.00;;;4.56;100.00
60099;BME280;62818;49.394;8.686;2022-11-20T01:38:38;99929.25;;;4.53;100.00
60099;BME280;62818;49.394;8.686;2022-11-20T01:39:41;99930.31;;;4.60;100.00
60099;BME280;62818;49.394;8.686;2022-11-20T01:40:44;99934.41;;;4.44;100.00
60099;BME280;62818;49.394;8.686;2022-11-20T01:41:45;99931.47;;;4.47;100.00
60099;BME280;62818;49.394;8.686;2022-11-20T01:43:23;99932.47;;;4.46;100.00
60099;BME280;62818;49.394;8.686;2022-11-20T01:45:59;99932.06;;;4.41;100.00
60099;BME280;62818;49.394;8.686;2022-11-20T01:47:04;99930.22;;;4.52;100.00
60099;BME280;62818;49.394;8.686;2022-11-20T01:48:09;99934.41;;;4.44;100.00
60099;BME280;62818;49.394;8.686;2022-11-20T01:49:41;99926.75;;;4.33;100.00
60099;BME280;62818;49.394;8.686;2022-11-20T01:50:49;99927.81;;;4.40;100.00
60099;BME280;62818;49.394;8.686;2022-11-20T01:51:57;99925.63;;;4.36;100.00
60099;BME280;62818;49.394;8.686;2022-11-20T01:53:08;99917.19;;;4.32;100.00
60099;BME280;62818;49.394;8.686;2022-11-20T01:54:17;99923.13;;;4.34;100.00
60099;BME280;62818;49.394;8.686;2022-11-20T01:55:24;99917.59;;;4.37;100.00
60099;BME280;62818;49.394;8.686;2022-11-20T01:56:33;99923.59;;;4.47;100.00
60099;BME280;62818;49.394;8.686;2022-11-20T01:57:38;99920.31;;;4.45;100.00
60099;BME280;62818;49.394;8.686;2022-11-20T01:58:44;99926.69;;;4.61;100.00
60099;BME280;62818;49.394;8.686;2022-11-20T01:59:59;99927.84;;;4.76;100.00
60099;BME280;62818;49.394;8.686;2022-11-20T02:01:14;99921.00;;;4.83;100.00
60099;BME280;62818;49.394;8.686;2022-11-20T02:02:14;99931.22;;;4.68;100.00
60099;BME280;62818;49.394;8.686;2022-11-20T02:03:18;99921.78;;;4.75;100.00
60099;BME280;62818;49.394;8.686;2022-11-20T02:04:22;99927.97;;;4.57;100.00
60099;BME280;62818;49.394;8.686;2022-11-20T02:06:48;99929.78;;;4.74;100.00
60099;BME280;62818;49.394;8.686;2022-11-20T02:07:54;99933.69;;;4.70;100.00
60099;BME280;62818;49.394;8.686;2022-11-20T02:09:02;99923.72;;;4.56;100.00
60099;BME280;62818;49.394;8.686;2022-11-20T02:10:05;99923.91;;;4.44;100.00
60099;BME280;62818;49.394;8.686;2022-11-20T02:11:08;99924.88;;;4.43;100.00
60099;BME280;62818;49.394;8.686;2022-11-20T02:12:09;99931.13;;;4.42;100.00
60099;BME280;62818;49.394;8.686;2022-11-20T02:13:30;99925.47;;;4.37;100.00
60099;BME280;62818;49.394;8.686;2022-11-20T02:14:45;99922.00;;;4.37;100.00
60099;BME280;62818;49.394;8.686;2022-11-20T02:15:46;99924.31;;;4.22;100.00
60099;BME280;62818;49.394;8.686;2022-11-20T02:16:54;99924.13;;;4.33;100.00
60099;BME280;62818;49.394;8.686;2022-11-20T02:17:57;99917.59;;;4.37;100.00
60099;BME280;62818;49.394;8.686;2022-11-20T02:19:06;99919.81;;;4.32;100.00
60099;BME280;62818;49.394;8.686;2022-11-20T02:20:15;99911.84;;;4.34;100.00
60099;BME280;62818;49.394;8.686;2022-11-20T02:22:53;99912.09;;;4.58;100.00
60099;BME280;62818;49.394;8.686;2022-11-20T02:24:12;99915.84;;;4.91;100.00
60099;BME280;62818;49.394;8.686;2022-11-20T02:25:16;99919.59;;;4.71;100.00
60099;BME280;62818;49.394;8.686;2022-11-20T02:26:23;99910.94;;;4.78;100.00
60099;BME280;62818;49.394;8.686;2022-11-20T02:27:30;99912.09;;;4.76;100.00
60099;BME280;62818;49.394;8.686;2022-11-20T02:28:33;99913.91;;;4.93;100.00
60099;BME280;62818;49.394;8.686;2022-11-20T02:30:01;99909.00;;;4.98;100.00
60099;BME280;62818;49.394;8.686;2022-11-20T02:31:04;99915.75;;;4.65;100.00
60099;BME280;62818;49.394;8.686;2022-11-20T02:32:29;99908.41;;;4.51;100.00
60099;BME280;62818;49.394;8.686;2022-11-20T02:33:36;99908.19;;;4.80;100.00
60099;BME280;62818;49.394;8.686;2022-11-20T02:34:36;99913.00;;;4.67;100.00
60099;BME280;62818;49.394;8.686;2022-11-20T02:35:44;99906.69;;;4.60;100.00
60099;BME280;62818;49.394;8.686;2022-11-20T02:36:46;99907.44;;;4.70;100.00
60099;BME280;62818;49.394;8.686;2022-11-20T02:37:54;99899.56;;;4.70;100.00
60099;BME280;62818;49.394;8.686;2022-11-20T02:38:55;99898.56;;;5.06;100.00
60099;BME280;62818;49.394;8.686;2022-11-20T02:39:58;99901.25;;;5.14;100.00
60099;BME280;62818;49.394;8.686;2022-11-20T02:40:59;99903.00;;;4.70;100.00
60099;BME280;62818;49.394;8.686;2022-11-20T02:42:02;99896.41;;;4.66;100.00
60099;BME280;62818;49.394;8.686;2022-11-20T02:43:02;99897.47;;;4.73;100.00
60099;BME280;62818;49.394;8.686;2022-11-20T02:44:04;99902.56;;;4.57;100.00
60099;BME280;62818;49.394;8.686;2022-11-20T02:45:10;99892.66;;;4.69;100.00
60099;BME280;62818;49.394;8.686;2022-11-20T02:46:13;99903.28;;;4.67;100.00
60099;BME280;62818;49.394;8.686;2022-11-20T02:47:13;99895.56;;;4.66;100.00
60099;BME280;62818;49.394;8.686;2022-11-20T02:48:16;99901.22;;;4.71;100.00
60099;BME280;62818;49.394;8.686;2022-11-20T02:49:16;99901.88;;;4.73;100.00
60099;BME280;62818;49.394;8.686;2022-11-20T02:50:19;99893.78;;;4.66;100.00
60099;BME280;62818;49.394;8.686;2022-11-20T02:51:19;99902.50;;;4.67;100.00
60099;BME280;62818;49.394;8.686;2022-11-20T02:52:20;99896.69;;;4.63;100.00
60099;BME280;62818;49.394;8.686;2022-11-20T02:53:20;99898.66;;;4.61;100.00
60099;BME280;62818;49.394;8.686;2022-11-20T02:54:23;99893.56;;;4.60;100.00
60099;BME280;62818;49.394;8.686;2022-11-20T02:55:27;99895.97;;;4.53;100.00
60099;BME280;62818;49.394;8.686;2022-11-20T02:56:32;99882.53;;;4.74;100.00
60099;BME280;62818;49.394;8.686;2022-11-20T02:57:35;99880.94;;;4.63;100.00
60099;BME280;62818;49.394;8.686;2022-11-20T02:58:38;99887.78;;;4.74;100.00
60099;BME280;62818;49.394;8.686;2022-11-20T02:59:41;99883.00;;;4.87;100.00
60099;BME280;62818;49.394;8.686;2022-11-20T03:00:44;99881.09;;;4.62;100.00
60099;BME280;62818;49.394;8.686;2022-11-20T03:01:44;99885.53;;;4.79;100.00
60099;BME280;62818;49.394;8.686;2022-11-20T03:02:52;99887.41;;;4.86;100.00
60099;BME280;62818;49.394;8.686;2022-11-20T03:03:57;99888.59;;;4.74;100.00
60099;BME280;62818;49.394;8.686;2022-11-20T03:05:00;99881.19;;;4.70;100.00
60099;BME280;62818;49.394;8.686;2022-11-20T03:06:01;99886.59;;;4.86;100.00
60099;BME280;62818;49.394;8.686;2022-11-20T03:07:04;99877.94;;;5.11;100.00
60099;BME280;62818;49.394;8.686;2022-11-20T03:08:06;99884.63;;;4.88;100.00
60099;BME280;62818;49.394;8.686;2022-11-20T03:09:07;99884.56;;;4.80;100.00
60099;BME280;62818;49.394;8.686;2022-11-20T03:10:10;99878.25;;;4.73;100.00
60099;BME280;62818;49.394;8.686;2022-11-20T03:11:11;99880.72;;;4.92;100.00
60099;BME280;62818;49.394;8.686;2022-11-20T03:12:17;99878.66;;;4.78;100.00
60099;BME280;62818;49.394;8.686;2022-11-20T03:13:19;99876.38;;;4.83;100.00
60099;BME280;62818;49.394;8.686;2022-11-20T03:14:24;99875.69;;;4.81;100.00
60099;BME280;62818;49.394;8.686;2022-11-20T03:15:24;99879.91;;;4.74;100.00
60099;BME280;62818;49.394;8.686;2022-11-20T03:16:27;99870.91;;;4.76;100.00
60099;BME280;62818;49.394;8.686;2022-11-20T03:17:30;99871.66;;;4.69;100.00
60099;BME280;62818;49.394;8.686;2022-11-20T03:18:30;99871.94;;;4.83;100.00
60099;BME280;62818;49.394;8.686;2022-11-20T03:19:33;99874.63;;;4.74;100.00
60099;BME280;62818;49.394;8.686;2022-11-20T03:20:34;99880.25;;;4.96;100.00
60099;BME280;62818;49.394;8.686;2022-11-20T03:21:38;99869.31;;;5.01;100.00
60099;BME280;62818;49.394;8.686;2022-11-20T03:22:42;99869.25;;;4.93;100.00
60099;BME280;62818;49.394;8.686;2022-11-20T03:23:45;99883.44;;;5.00;100.00
60099;BME280;62818;49.394;8.686;2022-11-20T03:24:45;99875.38;;;5.01;100.00
60099;BME280;62818;49.394;8.686;2022-11-20T03:25:48;99872.72;;;4.93;100.00
60099;BME280;62818;49.394;8.686;2022-11-20T03:26:51;99870.59;;;4.97;100.00
60099;BME280;62818;49.394;8.686;2022-11-20T03:27:52;99875.19;;;4.95;100.00
60099;BME280;62818;49.394;8.686;2022-11-20T03:28:54;99867.47;;;4.93;100.00
60099;BME280;62818;49.394;8.686;2022-11-20T03:30:05;99870.50;;;5.06;100.00
60099;BME280;62818;49.394;8.686;2022-11-20T03:31:11;99868.09;;;5.13;100.00
60099;BME280;62818;49.394;8.686;2022-11-20T03:32:15;99875.41;;;5.27;100.00
60099;BME280;62818;49.394;8.686;2022-11-20T03:33:16;99882.81;;;5.32;100.00
60099;BME280;62818;49.394;8.686;2022-11-20T03:34:19;99885.63;;;5.30;100.00
60099;BME280;62818;49.394;8.686;2022-11-20T03:35:22;99875.97;;;5.13;100.00
60099;BME280;62818;49.394;8.686;2022-11-20T03:36:27;99882.72;;;4.98;100.00
60099;BME280;62818;49.394;8.686;2022-11-20T03:37:29;99874.78;;;4.90;100.00
60099;BME280;62818;49.394;8.686;2022-11-20T03:38:33;99881.56;;;5.18;100.00
60099;BME280;62818;49.394;8.686;2022-11-20T03:39:36;99877.06;;;5.28;100.00
60099;BME280;62818;49.394;8.686;2022-11-20T03:40:37;99880.38;;;5.30;100.00
60099;BME280;62818;49.394;8.686;2022-11-20T03:41:40;99880.78;;;5.43;100.00
60099;BME280;62818;49.394;8.686;2022-11-20T03:42:42;99873.44;;;5.29;100.00
60099;BME280;62818;49.394;8.686;2022-11-20T03:43:52;99875.31;;;5.37;100.00
60099;BME280;62818;49.394;8.686;2022-11-20T03:44:55;99868.78;;;5.15;100.00
60099;BME280;62818;49.394;8.686;2022-11-20T03:45:56;99879.88;;;5.09;100.00
60099;BME280;62818;49.394;8.686;2022-11-20T03:46:56;99871.63;;;5.04;100.00
60099;BME280;62818;49.394;8.686;2022-11-20T03:48:01;99868.41;;;5.10;100.00
60099;BME280;62818;49.394;8.686;2022-11-20T03:49:06;99864.81;;;5.11;100.00
60099;BME280;62818;49.394;8.686;2022-11-20T03:50:13;99869.09;;;5.20;100.00
60099;BME280;62818;49.394;8.686;2022-11-20T03:51:21;99872.72;;;5.19;100.00
60099;BME280;62818;49.394;8.686;2022-11-20T03:52:28;99871.16;;;5.26;100.00
60099;BME280;62818;49.394;8.686;2022-11-20T03:53:31;99873.56;;;5.19;100.00
60099;BME280;62818;49.394;8.686;2022-11-20T03:54:34;99873.78;;;5.26;100.00
60099;BME280;62818;49.394;8.686;2022-11-20T03:55:39;99874.81;;;5.33;100.00
60099;BME280;62818;49.394;8.686;2022-11-20T03:56:44;99879.03;;;5.26;100.00
60099;BME280;62818;49.394;8.686;2022-11-20T03:57:49;99871.81;;;5.28;100.00
60099;BME280;62818;49.394;8.686;2022-11-20T03:58:50;99876.06;;;5.29;100.00
60099;BME280;62818;49.394;8.686;2022-11-20T03:59:53;99878.69;;;5.29;100.00
60099;BME280;62818;49.394;8.686;2022-11-20T04:00:55;99878.94;;;5.18;100.00
60099;BME280;62818;49.394;8.686;2022-11-20T04:01:56;99875.53;;;5.17;100.00
60099;BME280;62818;49.394;8.686;2022-11-20T04:03:02;99870.78;;;5.21;100.00
60099;BME280;62818;49.394;8.686;2022-11-20T04:04:05;99872.34;;;5.14;100.00
60099;BME280;62818;49.394;8.686;2022-11-20T04:05:06;99865.16;;;5.16;100.00
60099;BME280;62818;49.394;8.686;2022-11-20T04:06:13;99863.13;;;5.10;100.00
60099;BME280;62818;49.394;8.686;2022-11-20T04:07:15;99863.75;;;5.04;100.00
60099;BME280;62818;49.394;8.686;2022-11-20T04:08:20;99857.22;;;5.08;100.00
60099;BME280;62818;49.394;8.686;2022-11-20T04:09:27;99857.38;;;5.06;100.00
60099;BME280;62818;49.394;8.686;2022-11-20T04:10:30;99855.09;;;5.11;100.00
60099;BME280;62818;49.394;8.686;2022-11-20T04:11:32;99857.38;;;5.06;100.00
60099;BME280;62818;49.394;8.686;2022-11-20T04:12:35;99864.34;;;5.15;100.00
60099;BME280;62818;49.394;8.686;2022-11-20T04:13:38;99861.72;;;5.15;100.00
60099;BME280;62818;49.394;8.686;2022-11-20T04:14:43;99864.38;;;5.23;100.00
60099;BME280;62818;49.394;8.686;2022-11-20T04:15:44;99865.69;;;5.19;100.00
60099;BME280;62818;49.394;8.686;2022-11-20T04:16:49;99862.47;;;5.34;100.00
60099;BME280;62818;49.394;8.686;2022-11-20T04:17:49;99865.81;;;5.18;100.00
60099;BME280;62818;49.394;8.686;2022-11-20T04:18:55;99866.84;;;5.25;100.00
60099;BME280;62818;49.394;8.686;2022-11-20T04:19:59;99870.94;;;5.19;100.00
60099;BME280;62818;49.394;8.686;2022-11-20T04:21:00;99869.09;;;5.20;100.00
60099;BME280;62818;49.394;8.686;2022-11-20T04:22:01;99864.84;;;5.19;100.00
60099;BME280;62818;49.394;8.686;2022-11-20T04:23:06;99873.44;;;5.29;100.00
60099;BME280;62818;49.394;8.686;2022-11-20T04:24:06;99858.69;;;5.28;100.00
60099;BME280;62818;49.394;8.686;2022-11-20T04:25:08;99866.09;;;5.33;100.00
60099;BME280;62818;49.394;8.686;2022-11-20T04:26:10;99862.13;;;5.29;100.00
60099;BME280;62818;49.394;8.686;2022-11-20T04:27:14;99863.94;;;5.28;100.00
60099;BME280;62818;49.394;8.686;2022-11-20T04:28:17;99860.78;;;5.24;100.00
60099;BME280;62818;49.394;8.686;2022-11-20T04:29:20;99866.84;;;5.25;100.00
60099;BME280;62818;49.394;8.686;2022-11-20T04:30:21;99860.69;;;5.34;100.00
60099;BME280;62818;49.394;8.686;2022-11-20T04:31:28;99864.97;;;5.35;100.00
60099;BME280;62818;49.394;8.686;2022-11-20T04:32:29;99863.31;;;5.08;100.00
60099;BME280;62818;49.394;8.686;2022-11-20T04:33:33;99872.84;;;5.35;100.00
60099;BME280;62818;49.394;8.686;2022-11-20T04:34:34;99868.94;;;5.39;100.00
60099;BME280;62818;49.394;8.686;2022-11-20T04:35:39;99871.81;;;5.54;100.00
60099;BME280;62818;49.394;8.686;2022-11-20T04:36:42;99871.91;;;5.44;100.00
60099;BME280;62818;49.394;8.686;2022-11-20T04:37:44;99859.72;;;5.35;100.00
60099;BME280;62818;49.394;8.686;2022-11-20T04:38:45;99865.13;;;5.59;100.00
60099;BME280;62818;49.394;8.686;2022-11-20T04:39:46;99865.41;;;5.56;100.00
60099;BME280;62818;49.394;8.686;2022-11-20T04:40:56;99861.81;;;5.57;100.00
60099;BME280;62818;49.394;8.686;2022-11-20T04:42:00;99869.16;;;5.54;100.00
60099;BME280;62818;49.394;8.686;2022-11-20T04:43:19;99863.88;;;5.46;100.00
60099;BME280;62818;49.394;8.686;2022-11-20T04:44:24;99861.53;;;5.43;100.00
60099;BME280;62818;49.394;8.686;2022-11-20T04:45:27;99857.78;;;5.45;100.00
60099;BME280;62818;49.394;8.686;2022-11-20T04:46:37;99858.16;;;5.50;100.00
60099;BME280;62818;49.394;8.686;2022-11-20T04:47:42;99869.97;;;5.46;100.00
60099;BME280;62818;49.394;8.686;2022-11-20T04:48:43;99858.50;;;5.55;100.00
60099;BME280;62818;49.394;8.686;2022-11-20T04:49:46;99861.09;;;5.47;100.00
60099;BME280;62818;49.394;8.686;2022-11-20T04:50:49;99861.28;;;5.54;100.00
60099;BME280;62818;49.394;8.686;2022-11-20T04:51:53;99859.75;;;5.43;100.00
60099;BME280;62818;49.394;8.686;2022-11-20T04:52:56;99851.50;;;5.38;100.00
60099;BME280;62818;49.394;8.686;2022-11-20T04:54:01;99852.28;;;5.31;100.00
60099;BME280;62818;49.394;8.686;2022-11-20T04:55:03;99842.91;;;5.28;100.00
60099;BME280;62818;49.394;8.686;2022-11-20T04:56:05;99844.91;;;5.34;100.00
60099;BME280;62818;49.394;8.686;2022-11-20T04:57:07;99846.97;;;5.48;100.00
60099;BME280;62818;49.394;8.686;2022-11-20T04:58:08;99849.81;;;5.55;100.00
60099;BME280;62818;49.394;8.686;2022-11-20T04:59:11;99849.28;;;5.51;100.00
60099;BME280;62818;49.394;8.686;2022-11-20T05:00:12;99849.34;;;5.59;100.00
60099;BME280;62818;49.394;8.686;2022-11-20T05:01:19;99844.38;;;5.56;100.00
60099;BME280;62818;49.394;8.686;2022-11-20T05:02:21;99854.53;;;5.51;100.00
60099;BME280;62818;49.394;8.686;2022-11-20T05:03:21;99841.91;;;5.55;100.00
60099;BME280;62818;49.394;8.686;2022-11-20T05:04:22;99849.28;;;5.51;100.00
60099;BME280;62818;49.394;8.686;2022-11-20T05:05:23;99847.22;;;5.63;100.00
60099;BME280;62818;49.394;8.686;2022-11-20T05:06:28;99852.94;;;5.58;100.00
60099;BME280;62818;49.394;8.686;2022-11-20T05:07:28;99849.66;;;5.64;100.00
60099;BME280;62818;49.394;8.686;2022-11-20T05:08:32;99843.75;;;5.62;100.00
60099;BME280;62818;49.394;8.686;2022-11-20T05:09:33;99856.22;;;5.60;100.00
60099;BME280;62818;49.394;8.686;2022-11-20T05:10:35;99857.75;;;5.71;100.00
60099;BME280;62818;49.394;8.686;2022-11-20T05:11:38;99855.00;;;5.80;100.00
60099;BME280;62818;49.394;8.686;2022-11-20T05:12:41;99851.34;;;5.73;100.00
60099;BME280;62818;49.394;8.686;2022-11-20T05:13:47;99857.66;;;5.80;100.00
60099;BME280;62818;49.394;8.686;2022-11-20T05:14:48;99855.31;;;5.77;100.00
60099;BME280;62818;49.394;8.686;2022-11-20T05:15:51;99855.69;;;5.82;100.00
60099;BME280;62818;49.394;8.686;2022-11-20T05:16:52;99851.03;;;5.68;100.00
60099;BME280;62818;49.394;8.686;2022-11-20T05:17:52;99859.59;;;5.70;100.00
60099;BME280;62818;49.394;8.686;2022-11-20T05:18:56;99853.03;;;5.74;100.00
60099;BME280;62818;49.394;8.686;2022-11-20T05:19:59;99851.22;;;5.75;100.00
60099;BME280;62818;49.394;8.686;2022-11-20T05:21:02;99850.22;;;5.76;100.00
60099;BME280;62818;49.394;8.686;2022-11-20T05:22:05;99859.91;;;5.75;100.00
60099;BME280;62818;49.394;8.686;2022-11-20T05:23:07;99857.16;;;5.77;100.00
60099;BME280;62818;49.394;8.686;2022-11-20T05:24:10;99847.75;;;5.74;100.00
60099;BME280;62818;49.394;8.686;2022-11-20T05:25:11;99849.41;;;5.75;100.00
60099;BME280;62818;49.394;8.686;2022-11-20T05:26:16;99850.06;;;5.77;100.00
60099;BME280;62818;49.394;8.686;2022-11-20T05:27:19;99855.31;;;5.77;100.00
60099;BME280;62818;49.394;8.686;2022-11-20T05:28:20;99844.78;;;5.69;100.00
60099;BME280;62818;49.394;8.686;2022-11-20T05:29:29;99847.75;;;5.74;100.00
60099;BME280;62818;49.394;8.686;2022-11-20T05:30:32;99855.28;;;5.69;100.00
60099;BME280;62818;49.394;8.686;2022-11-20T05:31:38;99845.91;;;5.67;100.00
60099;BME280;62818;49.394;8.686;2022-11-20T05:32:40;99847.03;;;5.64;100.00
60099;BME280;62818;49.394;8.686;2022-11-20T05:33:45;99836.88;;;5.69;100.00
60099;BME280;62818;49.394;8.686;2022-11-20T05:34:48;99842.81;;;5.71;100.00
60099;BME280;62818;49.394;8.686;2022-11-20T05:35:51;99843.75;;;5.62;100.00
60099;BME280;62818;49.394;8.686;2022-11-20T05:36:52;99842.13;;;5.61;100.00
60099;BME280;62818;49.394;8.686;2022-11-20T05:37:57;99838.81;;;5.59;100.00
60099;BME280;62818;49.394;8.686;2022-11-20T05:39:00;99831.91;;;5.58;100.00
60099;BME280;62818;49.394;8.686;2022-11-20T05:40:00;99834.22;;;5.61;100.00
60099;BME280;62818;49.394;8.686;2022-11-20T05:41:05;99829.31;;;5.66;100.00
60099;BME280;62818;49.394;8.686;2022-11-20T05:42:10;99825.81;;;5.58;100.00
60099;BME280;62818;49.394;8.686;2022-11-20T05:43:41;99834.38;;;5.60;100.00